Time;durP1;ratioP1;P1;durP2;ratioP2;P2;SDS_P1;SDS_P2;PMS_P1;PMS_P2;Temp;Humidity;BMP_temperature;BMP_pressure;BME280_temperature;BME280_humidity;BME280_pressure;Samples;Min_cycle;Max_cycle;Signal;HPM_P1;HPM_P2
2021/12/29 00:01:01;;;;;;;48.70;19.20;;;;;;;-4.90;90.34;97753.48;2148239;83;20975;-59
2021/12/29 00:04:01;;;;;;;45.28;18.48;;;;;;;-4.85;90.37;97754.26;2131365;84;20993;-58
2021/12/29 00:07:02;;;;;;;47.48;18.60;;;;;;;-4.85;90.01;97761.10;2148094;83;21499;-58
2021/12/29 00:10:03;;;;;;;50.65;20.40;;;;;;;-4.83;90.03;97767.86;2131850;84;21278;-60
2021/12/29 00:13:04;;;;;;;45.15;17.82;;;;;;;-4.81;90.08;97767.83;2148376;83;21042;-58
2021/12/29 00:16:05;;;;;;;49.87;19.40;;;;;;;-4.75;90.04;97766.48;2131526;84;21083;-57
2021/12/29 00:19:05;;;;;;;50.03;18.77;;;;;;;-4.80;89.77;97766.52;2147937;83;21553;-59
2021/12/29 00:22:05;;;;;;;47.40;19.70;;;;;;;-4.80;90.09;97766.52;2131726;84;21051;-60
2021/12/29 00:25:06;;;;;;;47.93;19.52;;;;;;;-4.75;90.03;97765.19;2148154;83;21031;-58
2021/12/29 00:28:06;;;;;;;49.05;19.73;;;;;;;-4.70;90.07;97773.62;2131538;84;21008;-58
2021/12/29 00:31:07;;;;;;;49.55;18.73;;;;;;;-4.65;90.05;97771.02;2147603;83;21067;-59
2021/12/29 00:34:08;;;;;;;51.90;19.62;;;;;;;-4.56;89.95;97775.52;2131497;84;21119;-58
2021/12/29 00:37:08;;;;;;;49.73;19.37;;;;;;;-4.54;89.83;97775.06;2147966;83;21502;-59
2021/12/29 00:40:09;;;;;;;45.08;18.30;;;;;;;-4.50;89.76;97774.56;2131633;84;21090;-57
2021/12/29 00:43:09;;;;;;;46.18;18.70;;;;;;;-4.52;89.59;97772.03;2148173;83;21026;-58
2021/12/29 00:46:12;;;;;;;50.10;19.67;;;;;;;-4.51;89.56;97779.30;2131473;84;20989;-58
2021/12/29 00:49:12;;;;;;;48.50;18.62;;;;;;;-4.46;89.63;97782.60;2148282;83;20991;-58
2021/12/29 00:52:13;;;;;;;47.65;18.55;;;;;;;-4.45;89.77;97784.30;2131405;84;21012;-58
2021/12/29 00:55:14;;;;;;;44.18;17.65;;;;;;;-4.35;89.62;97788.38;2148075;83;21071;-58
2021/12/29 00:58:14;;;;;;;48.02;18.32;;;;;;;-4.32;89.57;97787.91;2131444;84;21227;-59
2021/12/29 01:01:14;;;;;;;47.13;19.35;;;;;;;-4.32;89.46;97783.65;2148172;83;20983;-59
2021/12/29 01:04:15;;;;;;;49.40;19.45;;;;;;;-4.35;89.38;97779.87;2131193;84;21025;-58
2021/12/29 01:07:15;;;;;;;47.17;18.98;;;;;;;-4.34;89.49;97780.25;2148074;83;21088;-59
2021/12/29 01:10:16;;;;;;;45.23;18.20;;;;;;;-4.33;89.44;97764.03;2131447;84;21037;-61
2021/12/29 01:13:19;;;;;;;45.30;18.12;;;;;;;-4.42;89.22;97762.48;2147700;83;21086;-61
2021/12/29 01:19:21;;;;;;;53.13;19.65;;;;;;;-4.46;89.51;97767.69;2120003;83;21003;-59
2021/12/29 01:22:21;;;;;;;45.28;17.62;;;;;;;-4.48;89.61;97761.73;2131465;84;20973;-58
2021/12/29 01:25:22;;;;;;;48.87;18.65;;;;;;;-4.50;89.47;97761.77;2148041;83;21055;-58
2021/12/29 01:28:22;;;;;;;44.23;17.50;;;;;;;-4.49;89.59;97760.07;2131418;84;21504;-58
2021/12/29 01:31:23;;;;;;;47.85;17.57;;;;;;;-4.52;89.52;97756.67;2148165;83;21030;-59
2021/12/29 01:34:23;;;;;;;46.53;17.90;;;;;;;-4.57;89.45;97746.97;2131570;84;20996;-58
2021/12/29 01:37:24;;;;;;;43.78;17.65;;;;;;;-4.65;89.51;97744.14;2147948;83;21075;-58
2021/12/29 01:40:24;;;;;;;45.17;17.75;;;;;;;-4.71;89.63;97748.48;2131258;84;20992;-58
2021/12/29 01:43:24;;;;;;;46.50;17.65;;;;;;;-4.77;89.81;97744.75;2147907;83;21044;-59
2021/12/29 01:46:25;;;;;;;49.80;18.62;;;;;;;-4.76;90.00;97745.59;2131367;84;21547;-59
2021/12/29 01:49:25;;;;;;;42.43;17.55;;;;;;;-4.77;89.92;97745.17;2148021;83;20975;-58
2021/12/29 01:52:29;;;;;;;42.50;18.12;;;;;;;-4.73;90.08;97751.48;2131554;84;21084;-59
2021/12/29 01:55:30;;;;;;;41.80;16.75;;;;;;;-4.70;89.90;97751.87;2120101;83;20990;-59
2021/12/29 01:58:30;;;;;;;46.40;17.02;;;;;;;-4.73;89.79;97745.08;2105726;84;21012;-59
2021/12/29 02:01:31;;;;;;;45.98;17.52;;;;;;;-4.76;89.73;97739.19;2148113;83;21010;-58
2021/12/29 02:04:32;;;;;;;44.58;16.75;;;;;;;-4.82;89.72;97743.14;2130965;84;21084;-59
2021/12/29 02:07:33;;;;;;;44.03;18.07;;;;;;;-4.85;89.77;97742.75;2147943;83;20948;-59
2021/12/29 02:10:40;;;;;;;43.02;17.07;;;;;;;-4.89;89.79;97742.38;2131434;84;21067;-58
2021/12/29 02:13:36;;;;;;;42.30;17.07;;;;;;;-4.88;89.74;97744.91;2120152;83;21031;-58
2021/12/29 02:16:36;;;;;;;46.35;18.10;;;;;;;-4.94;89.57;97739.91;2131348;84;21096;-58
2021/12/29 02:19:43;;;;;;;48.75;19.07;;;;;;;-5.00;89.58;97735.31;2150180;83;21526;-58
2021/12/29 02:28:44;;;;;;;51.53;18.55;;;;;;;-5.03;89.76;97728.97;2110919;83;20980;-58
2021/12/29 02:31:44;;;;;;;46.95;18.48;;;;;;;-5.09;89.50;97727.36;2154760;83;20978;-59
2021/12/29 02:34:45;;;;;;;47.40;17.98;;;;;;;-5.17;89.56;97724.06;2134811;83;21618;-60
2021/12/29 02:37:46;;;;;;;47.08;17.17;;;;;;;-5.18;89.75;97731.35;2154510;83;21030;-59
2021/12/29 02:40:46;;;;;;;45.98;18.27;;;;;;;-5.24;89.67;97733.12;2135250;83;21004;-59
2021/12/29 02:43:47;;;;;;;50.10;18.93;;;;;;;-5.30;89.59;97729.38;2154904;83;21034;-59
2021/12/29 02:46:47;;;;;;;50.78;18.75;;;;;;;-5.27;89.69;97729.34;2134704;83;20992;-58
2021/12/29 02:49:47;;;;;;;46.95;16.95;;;;;;;-5.31;89.73;97728.97;2154764;83;20994;-59
2021/12/29 02:52:48;;;;;;;42.78;16.82;;;;;;;-5.34;89.74;97731.58;2135144;83;21555;-59
2021/12/29 02:55:49;;;;;;;42.78;17.15;;;;;;;-5.32;89.99;97734.94;2155042;83;20979;-58
2021/12/29 02:58:49;;;;;;;44.38;17.42;;;;;;;-5.23;90.13;97732.67;2135205;83;21020;-59
2021/12/29 03:01:50;;;;;;;47.13;17.67;;;;;;;-5.14;90.16;97733.83;2155154;83;21095;-59
2021/12/29 03:04:50;;;;;;;44.23;18.37;;;;;;;-5.02;90.45;97736.63;2134969;83;21081;-58
2021/12/29 03:07:54;;;;;;;45.63;17.42;;;;;;;-4.92;90.21;97741.99;2154846;83;21475;-58
2021/12/29 03:10:53;;;;;;;47.95;19.40;;;;;;;-4.77;90.43;97742.19;2111029;83;21055;-58
2021/12/29 03:13:54;;;;;;;47.08;17.80;;;;;;;-4.64;90.09;97740.69;2155207;83;20996;-58
2021/12/29 03:16:54;;;;;;;50.88;18.90;;;;;;;-4.61;89.76;97749.17;2135070;83;21079;-58
2021/12/29 03:19:55;;;;;;;45.75;18.12;;;;;;;-4.59;89.80;97747.41;2152341;83;21027;-58
2021/12/29 03:22:55;;;;;;;48.08;18.00;;;;;;;-4.53;89.66;97746.47;2131525;84;21045;-58
2021/12/29 03:25:56;;;;;;;42.90;19.10;;;;;;;-4.45;89.93;97747.59;2148089;83;21015;-58
2021/12/29 03:28:57;;;;;;;41.30;16.97;;;;;;;-4.42;89.64;97743.73;2131414;84;20985;-58
2021/12/29 03:32:05;;;;;;;42.90;17.10;;;;;;;-4.36;89.50;97737.20;2148140;83;21090;-58
2021/12/29 03:35:00;;;;;;;44.20;16.93;;;;;;;-4.40;89.50;97741.97;2105786;84;20989;-58
2021/12/29 03:38:01;;;;;;;44.13;16.95;;;;;;;-4.39;89.60;97737.27;2147826;83;21027;-57
2021/12/29 03:41:01;;;;;;;42.88;17.98;;;;;;;-4.38;89.47;97735.13;2131569;84;21092;-59
2021/12/29 03:44:02;;;;;;;41.25;16.45;;;;;;;-4.31;89.53;97742.23;2148014;83;20971;-58
2021/12/29 03:47:02;;;;;;;40.50;16.27;;;;;;;-4.33;89.46;97737.59;2131492;84;21863;-58
2021/12/29 03:50:03;;;;;;;44.15;16.65;;;;;;;-4.32;89.28;97744.37;2148417;83;21006;-58
2021/12/29 03:53:03;;;;;;;46.58;17.92;;;;;;;-4.32;89.54;97747.80;2131674;84;21028;-58
2021/12/29 03:56:04;;;;;;;47.17;16.73;;;;;;;-4.31;89.64;97759.74;2148224;83;20967;-58
2021/12/29 03:59:04;;;;;;;40.10;16.30;;;;;;;-4.28;89.56;97767.37;2131328;84;21092;-58
2021/12/29 04:02:05;;;;;;;45.70;17.52;;;;;;;-4.28;89.51;97758.82;2148086;83;20971;-58
2021/12/29 04:05:05;;;;;;;41.88;16.37;;;;;;;-4.31;89.43;97758.47;2131286;84;21543;-58
2021/12/29 04:08:06;;;;;;;44.67;16.95;;;;;;;-4.30;89.48;97765.70;2148097;83;20979;-59
2021/12/29 04:11:06;;;;;;;44.42;17.02;;;;;;;-4.35;89.42;97765.34;2131599;84;21032;-59
2021/12/29 04:14:07;;;;;;;40.50;16.97;;;;;;;-4.33;89.56;97770.88;2148389;82;20999;-59
2021/12/29 04:17:09;;;;;;;39.48;16.10;;;;;;;-4.32;89.70;97766.14;2131463;84;21017;-59
2021/12/29 04:23:12;;;;;;;40.75;16.93;;;;;;;-4.32;89.65;97768.70;2105688;84;20988;-58
2021/12/29 04:26:12;;;;;;;42.27;17.17;;;;;;;-4.33;89.66;97777.28;2148014;83;21366;-58
2021/12/29 04:29:13;;;;;;;44.75;17.00;;;;;;;-4.33;89.71;97769.16;2131534;84;21072;-59
2021/12/29 04:32:14;;;;;;;46.47;17.73;;;;;;;-4.36;89.77;97771.77;2148293;83;21010;-59
2021/12/29 04:35:15;;;;;;;44.48;16.97;;;;;;;-4.36;89.94;97769.21;2131541;84;21132;-59
2021/12/29 04:38:15;;;;;;;43.08;17.17;;;;;;;-4.36;89.93;97772.60;2147915;83;20992;-59
2021/12/29 04:41:16;;;;;;;42.43;17.02;;;;;;;-4.37;90.12;97776.06;2131498;84;21056;-60
2021/12/29 04:44:16;;;;;;;45.58;18.55;;;;;;;-4.32;90.22;97779.81;2148071;83;20959;-59
2021/12/29 04:47:18;;;;;;;45.38;18.20;;;;;;;-4.32;90.29;97772.55;2131461;84;21472;-58
2021/12/29 04:53:21;;;;;;;47.98;19.45;;;;;;;-4.34;90.51;97773.85;2105982;84;21526;-59
2021/12/29 04:56:21;;;;;;;45.92;18.35;;;;;;;-4.30;90.64;97773.38;2148224;83;20967;-59
2021/12/29 04:59:22;;;;;;;44.35;18.23;;;;;;;-4.24;90.70;97777.97;2131610;84;21032;-59
2021/12/29 05:02:23;;;;;;;46.42;17.48;;;;;;;-4.20;90.69;97785.14;2147912;83;21031;-58
2021/12/29 05:05:40;;;;;;;44.25;17.95;;;;;;;-4.16;90.70;97780.82;2131399;84;21646;-58
2021/12/29 05:08:26;;;;;;;47.65;19.30;;;;;;;-4.14;90.71;97775.22;2120112;83;20980;-60
2021/12/29 05:11:26;;;;;;;45.30;17.77;;;;;;;-4.14;90.70;97770.09;2131355;84;21032;-59
2021/12/29 05:14:27;;;;;;;45.03;17.73;;;;;;;-4.15;90.79;97765.42;2148173;83;21060;-58
2021/12/29 05:17:27;;;;;;;43.55;18.57;;;;;;;-4.15;90.89;97769.27;2131647;84;21020;-59
2021/12/29 05:20:28;;;;;;;46.50;19.27;;;;;;;-4.15;90.85;97773.52;2150188;83;21098;-58
2021/12/29 05:23:29;;;;;;;46.45;19.23;;;;;;;-4.17;90.89;97774.83;2134915;83;21028;-59
2021/12/29 05:26:29;;;;;;;45.40;18.87;;;;;;;-4.17;90.97;97785.08;2154797;83;21457;-59
2021/12/29 05:29:30;;;;;;;44.85;18.55;;;;;;;-4.13;91.05;97783.32;2135094;83;21036;-60
2021/12/29 05:32:30;;;;;;;42.05;18.15;;;;;;;-4.12;91.04;97794.81;2154830;83;20955;-58
2021/12/29 05:35:31;;;;;;;43.20;17.80;;;;;;;-4.08;91.07;97796.86;2134895;83;21048;-59
2021/12/29 05:38:31;;;;;;;41.33;17.23;;;;;;;-4.03;91.13;97803.59;2154823;83;21043;-59
2021/12/29 05:41:32;;;;;;;43.45;17.32;;;;;;;-4.03;91.01;97795.08;2134893;83;21539;-58
2021/12/29 05:44:32;;;;;;;42.48;17.70;;;;;;;-4.00;91.09;97797.13;2154672;83;21015;-58
2021/12/29 05:47:33;;;;;;;43.75;17.42;;;;;;;-3.96;91.09;97794.09;2134770;83;21051;-59
2021/12/29 05:50:34;;;;;;;44.18;17.05;;;;;;;-3.96;91.13;97803.05;2154816;83;21146;-59
2021/12/29 05:53:34;;;;;;;49.90;20.65;;;;;;;-3.93;91.16;97803.44;2134801;83;20980;-59
2021/12/29 05:56:37;;;;;;;39.95;16.70;;;;;;;-3.90;91.23;97797.80;2154798;83;21022;-59
2021/12/29 05:59:38;;;;;;;40.83;17.37;;;;;;;-3.90;91.06;97796.52;2134764;83;21591;-58
2021/12/29 06:02:39;;;;;;;46.98;18.32;;;;;;;-3.90;91.15;97788.00;2154600;83;21541;-58
2021/12/29 06:05:39;;;;;;;44.05;17.20;;;;;;;-3.91;91.04;97792.70;2134969;83;21000;-58
2021/12/29 06:08:40;;;;;;;45.23;18.17;;;;;;;-3.94;91.21;97787.20;2154925;83;21074;-59
2021/12/29 06:11:41;;;;;;;39.58;16.93;;;;;;;-3.91;91.26;97785.02;2134914;83;20988;-58
2021/12/29 06:14:44;;;;;;;39.80;16.90;;;;;;;-3.92;91.27;97788.45;2154643;83;21517;-58
2021/12/29 06:17:43;;;;;;;42.05;18.27;;;;;;;-3.91;91.38;97797.39;2110814;83;21099;-59
2021/12/29 06:20:44;;;;;;;43.20;17.27;;;;;;;-3.90;91.47;97802.92;2154535;83;21011;-58
2021/12/29 06:23:44;;;;;;;41.65;17.25;;;;;;;-3.91;91.41;97801.23;2134848;83;21579;-58
2021/12/29 06:26:45;;;;;;;44.25;16.93;;;;;;;-3.89;91.44;97799.95;2154853;83;20983;-58
2021/12/29 06:29:45;;;;;;;44.80;17.48;;;;;;;-3.85;91.52;97798.57;2134885;83;21020;-58
2021/12/29 06:32:45;;;;;;;45.83;18.17;;;;;;;-3.80;91.56;97801.48;2154890;83;20940;-58
2021/12/29 06:35:46;;;;;;;44.95;18.52;;;;;;;-3.78;91.42;97801.84;2134863;83;21025;-59
2021/12/29 06:38:46;;;;;;;40.60;17.67;;;;;;;-3.76;91.34;97806.52;2154326;83;21003;-58
2021/12/29 06:41:47;;;;;;;45.88;18.17;;;;;;;-3.75;91.39;97812.47;2134728;83;21503;-58
2021/12/29 06:44:47;;;;;;;41.88;16.60;;;;;;;-3.75;91.51;97812.47;2154741;83;20971;-58
2021/12/29 06:47:48;;;;;;;46.83;18.85;;;;;;;-3.71;91.53;97819.23;2134868;83;21044;-58
2021/12/29 06:50:48;;;;;;;42.67;18.75;;;;;;;-3.70;91.48;97817.91;2155165;83;20944;-58
2021/12/29 06:53:49;;;;;;;46.10;18.42;;;;;;;-3.66;91.56;97820.83;2135022;83;20992;-58
2021/12/29 06:56:50;;;;;;;45.25;18.35;;;;;;;-3.62;91.48;97822.91;2154765;82;21538;-59
2021/12/29 06:59:50;;;;;;;43.25;17.07;;;;;;;-3.61;91.56;97817.33;2134983;83;21084;-58
2021/12/29 07:02:51;;;;;;;47.25;20.48;;;;;;;-3.64;91.48;97820.80;2154863;83;20971;-59
2021/12/29 07:05:51;;;;;;;44.50;18.48;;;;;;;-3.60;91.59;97826.72;2134823;83;21076;-58
2021/12/29 07:08:51;;;;;;;45.15;19.12;;;;;;;-3.58;91.54;97842.45;2154696;83;20951;-59
2021/12/29 07:11:52;;;;;;;47.17;19.62;;;;;;;-3.56;91.48;97839.44;2134894;83;21495;-60
2021/12/29 07:14:52;;;;;;;45.17;19.00;;;;;;;-3.70;91.45;97817.08;2155084;83;20967;-59
2021/12/29 07:17:53;;;;;;;47.73;20.30;;;;;;;-3.53;91.80;97843.22;2134997;83;21016;-59
2021/12/29 07:20:53;;;;;;;43.58;18.55;;;;;;;-3.49;91.60;97846.13;2154723;81;21074;-59
2021/12/29 07:23:54;;;;;;;45.67;19.67;;;;;;;-3.41;91.68;97851.55;2134751;83;20952;-58
2021/12/29 07:26:54;;;;;;;45.43;20.02;;;;;;;-3.36;91.58;97846.73;2154692;83;20999;-59
2021/12/29 07:29:56;;;;;;;46.90;20.10;;;;;;;-3.30;91.59;97852.17;2134551;83;21503;-59
2021/12/29 07:32:56;;;;;;;48.55;21.33;;;;;;;-3.28;91.44;97854.25;2154868;83;20972;-59
2021/12/29 07:35:57;;;;;;;48.60;20.40;;;;;;;-3.26;91.39;97858.06;2134821;83;21029;-59
2021/12/29 07:38:58;;;;;;;49.85;21.23;;;;;;;-3.22;91.56;97854.14;2154277;83;21058;-59
2021/12/29 07:41:58;;;;;;;50.33;21.70;;;;;;;-3.16;91.48;97854.00;2135003;83;21016;-58
2021/12/29 07:44:59;;;;;;;62.50;26.75;;;;;;;-3.14;91.49;97864.23;2154884;83;22004;-59
2021/12/29 07:48:02;;;;;;;53.33;22.95;;;;;;;-3.09;91.49;97865.41;2135165;83;20992;-59
2021/12/29 07:51:02;;;;;;;57.40;23.02;;;;;;;-3.04;91.44;97864.44;2128638;83;21065;-58
2021/12/29 07:54:03;;;;;;;64.47;26.23;;;;;;;-2.98;91.43;97868.59;2134854;83;21559;-59
2021/12/29 07:57:04;;;;;;;71.87;27.58;;;;;;;-2.93;91.34;97870.63;2154800;83;21010;-58
2021/12/29 08:00:04;;;;;;;69.53;26.45;;;;;;;-2.90;91.37;97874.83;2135145;83;21043;-59
2021/12/29 08:03:05;;;;;;;59.00;24.00;;;;;;;-2.89;91.40;97880.38;2155017;83;21058;-59
2021/12/29 08:06:07;;;;;;;66.37;26.62;;;;;;;-2.88;91.37;97880.34;2134676;83;21598;-59
2021/12/29 08:09:09;;;;;;;58.87;23.60;;;;;;;-2.83;91.46;97879.81;2155015;83;21075;-59
2021/12/29 08:12:10;;;;;;;66.50;25.80;;;;;;;-2.74;91.46;97883.89;2135167;83;21028;-59
2021/12/29 08:15:11;;;;;;;66.55;26.52;;;;;;;-2.65;91.34;97882.84;2154872;83;21580;-58
2021/12/29 08:18:12;;;;;;;59.08;24.77;;;;;;;-2.54;91.30;97886.42;2135518;83;20996;-59
2021/12/29 08:21:12;;;;;;;67.95;26.95;;;;;;;-2.48;91.05;97889.70;2154800;83;21055;-59
2021/12/29 08:24:13;;;;;;;64.67;25.60;;;;;;;-2.41;90.98;97886.98;2134977;83;21127;-59
2021/12/29 08:27:14;;;;;;;62.85;24.92;;;;;;;-2.39;90.65;97889.09;2154825;83;21494;-59
2021/12/29 08:30:14;;;;;;;58.38;24.75;;;;;;;-2.37;90.68;97897.59;2134873;83;21033;-58
2021/12/29 08:33:15;;;;;;;57.40;24.50;;;;;;;-2.32;90.62;97904.77;2154826;83;21054;-59
2021/12/29 08:36:15;;;;;;;58.45;25.35;;;;;;;-2.28;90.58;97907.67;2135083;83;21076;-59
2021/12/29 08:39:18;;;;;;;58.52;25.88;;;;;;;-2.23;90.63;97907.09;2154876;82;20975;-59
2021/12/29 08:42:18;;;;;;;55.00;24.10;;;;;;;-2.09;90.66;97916.60;2111265;83;20973;-59
2021/12/29 08:45:18;;;;;;;60.00;26.07;;;;;;;-2.03;90.26;97918.17;2154810;83;20991;-58
2021/12/29 08:48:19;;;;;;;58.28;25.55;;;;;;;-1.98;90.23;97923.23;2135000;83;20989;-59
2021/12/29 08:51:19;;;;;;;57.13;24.60;;;;;;;-1.94;90.33;97926.96;2154800;83;21062;-59
2021/12/29 08:54:20;;;;;;;55.40;25.92;;;;;;;-1.90;90.19;97923.03;2134871;83;20999;-59
2021/12/29 08:57:20;;;;;;;62.13;26.95;;;;;;;-1.86;89.75;97919.05;2154552;83;21014;-59
2021/12/29 09:00:21;;;;;;;62.40;29.05;;;;;;;-1.84;90.23;97922.44;2135005;83;21072;-58
2021/12/29 09:03:22;;;;;;;65.20;26.82;;;;;;;-1.76;90.07;97926.92;2154861;83;21030;-59
2021/12/29 09:06:23;;;;;;;57.20;26.73;;;;;;;-1.68;90.16;97927.16;2135003;83;21084;-59
2021/12/29 09:09:23;;;;;;;87.20;41.48;;;;;;;-1.58;89.99;97932.05;2155118;83;21050;-59
2021/12/29 09:12:24;;;;;;;63.13;28.38;;;;;;;-1.44;90.05;97935.97;2134963;83;20984;-59
2021/12/29 09:15:24;;;;;;;65.97;29.25;;;;;;;-1.39;89.76;97936.70;2154894;83;20971;-59
2021/12/29 09:18:25;;;;;;;96.17;38.30;;;;;;;-1.28;89.79;97933.82;2134909;83;20953;-59
2021/12/29 09:21:27;;;;;;;70.60;32.08;;;;;;;-1.20;89.76;97924.62;2152048;81;21000;-59
2021/12/29 09:24:29;;;;;;;60.63;29.52;;;;;;;-1.12;89.46;97920.08;2104158;84;21026;-59
2021/12/29 09:27:30;;;;;;;66.22;31.10;;;;;;;-1.06;89.33;97910.92;2147904;83;21073;-59
2021/12/29 09:30:30;;;;;;;61.45;29.50;;;;;;;-0.91;89.20;97904.02;2131580;84;20992;-60
2021/12/29 09:33:31;;;;;;;63.08;28.85;;;;;;;-0.77;89.21;97900.21;2148229;83;21063;-59
2021/12/29 09:36:31;;;;;;;65.20;29.27;;;;;;;-0.64;89.05;97898.94;2131522;84;21024;-59
2021/12/29 09:39:32;;;;;;;65.57;30.35;;;;;;;-0.58;88.21;97885.03;2148046;83;20972;-59
2021/12/29 09:42:34;;;;;;;;;;;;;;;-0.51;88.58;97876.22;2133988;84;21507;-59
2021/12/29 09:45:35;;;;;;;76.25;33.92;;;;;;;-0.43;87.98;97879.41;2131402;83;20142;-59
2021/12/29 09:48:35;;;;;;;64.30;29.77;;;;;;;-0.20;88.34;97880.41;2148018;83;20960;-59
2021/12/29 09:51:36;;;;;;;64.50;30.52;;;;;;;0.05;88.42;97878.30;2131400;84;21108;-59
2021/12/29 09:54:36;;;;;;;62.50;29.98;;;;;;;0.28;87.83;97877.06;2147793;83;21537;-59
2021/12/29 09:57:37;;;;;;;64.32;30.20;;;;;;;0.47;87.34;97888.03;2131280;84;21479;-59
2021/12/29 10:00:38;;;;;;;61.28;29.80;;;;;;;0.57;87.26;97890.67;2148040;83;21015;-59
2021/12/29 10:03:38;;;;;;;63.90;31.33;;;;;;;0.60;87.07;97889.27;2131698;84;21001;-60
2021/12/29 10:06:39;;;;;;;64.32;31.33;;;;;;;0.61;87.14;97885.80;2147822;83;21056;-59
2021/12/29 10:09:39;;;;;;;63.38;31.33;;;;;;;0.62;86.90;97889.25;2131442;84;21531;-59
2021/12/29 10:12:40;;;;;;;62.67;30.23;;;;;;;0.63;87.23;97889.63;2147854;83;20988;-59
2021/12/29 10:15:40;;;;;;;77.20;37.70;;;;;;;0.59;86.71;97889.33;2131395;84;21041;-59
2021/12/29 10:18:43;;;;;;;76.95;36.13;;;;;;;0.50;87.17;97890.50;2148156;83;20959;-59
2021/12/29 10:21:43;;;;;;;64.75;31.65;;;;;;;0.49;87.47;97892.70;2106911;83;21111;-59
2021/12/29 10:24:43;;;;;;;60.52;29.37;;;;;;;0.43;87.12;97893.77;2154728;83;20944;-59
2021/12/29 10:27:44;;;;;;;67.17;31.17;;;;;;;0.41;87.29;97898.58;2135025;83;20993;-59
2021/12/29 10:30:45;;;;;;;65.87;31.15;;;;;;;0.40;87.35;97904.16;2154358;83;21026;-59
2021/12/29 10:33:45;;;;;;;72.97;34.70;;;;;;;0.40;87.33;97915.77;2134928;83;20989;-59
2021/12/29 10:36:46;;;;;;;76.87;37.73;;;;;;;0.34;87.49;97918.57;2154671;83;21546;-59
2021/12/29 10:39:46;;;;;;;74.05;32.63;;;;;;;0.25;87.22;97921.48;2135030;83;20996;-58
2021/12/29 10:42:47;;;;;;;63.95;31.37;;;;;;;0.19;87.37;97912.21;2154918;83;21089;-58
2021/12/29 10:45:49;;;;;;;68.25;31.35;;;;;;;0.15;87.49;97919.65;2134716;83;21024;-58
2021/12/29 10:48:49;;;;;;;68.85;34.27;;;;;;;0.15;87.79;97915.78;2154801;83;21062;-59
2021/12/29 10:51:50;;;;;;;68.97;35.17;;;;;;;0.21;87.65;97919.44;2134782;83;21016;-59
2021/12/29 10:54:50;;;;;;;68.12;32.80;;;;;;;0.19;87.22;97925.10;2154741;83;21554;-58
2021/12/29 10:57:51;;;;;;;72.05;35.15;;;;;;;0.14;87.34;97921.39;2135534;83;21404;-58
2021/12/29 11:00:51;;;;;;;70.95;35.75;;;;;;;0.18;87.47;97922.58;2155035;83;21023;-59
2021/12/29 11:03:52;;;;;;;70.62;33.75;;;;;;;0.23;87.74;97924.54;2134453;83;21028;-59
2021/12/29 11:06:55;;;;;;;68.17;33.48;;;;;;;0.27;87.76;97920.97;2154632;83;20995;-59
2021/12/29 11:09:55;;;;;;;74.40;34.45;;;;;;;0.26;87.38;97922.72;2110764;83;21016;-58
2021/12/29 11:12:56;;;;;;;68.52;34.10;;;;;;;0.32;87.77;97916.51;2154936;82;21502;-59
2021/12/29 11:15:56;;;;;;;71.45;36.65;;;;;;;0.38;87.42;97916.29;2134970;83;21245;-59
2021/12/29 11:18:57;;;;;;;69.55;33.78;;;;;;;0.32;87.36;97914.76;2154997;83;20971;-59
2021/12/29 11:21:57;;;;;;;72.87;34.35;;;;;;;0.25;87.18;97915.86;2134952;83;21087;-59
2021/12/29 11:24:57;;;;;;;76.28;38.63;;;;;;;0.17;87.46;97917.84;2154766;83;21506;-59
2021/12/29 11:27:58;;;;;;;83.20;39.88;;;;;;;0.12;87.55;97910.73;2135048;83;21024;-59
2021/12/29 11:30:58;;;;;;;104.47;50.67;;;;;;;0.10;87.78;97915.08;2154959;83;20971;-58
2021/12/29 11:33:59;;;;;;;88.03;41.60;;;;;;;0.14;87.81;97917.95;2135428;83;20971;-58
2021/12/29 11:36:59;;;;;;;95.15;48.58;;;;;;;0.14;87.83;97926.98;2154906;83;21042;-59
2021/12/29 11:40:00;;;;;;;76.70;38.23;;;;;;;0.16;88.08;97932.95;2135182;83;20952;-59
2021/12/29 11:43:00;;;;;;;79.30;37.80;;;;;;;0.13;87.91;97935.17;2154838;83;21027;-59
2021/12/29 11:46:01;;;;;;;80.30;37.67;;;;;;;0.14;88.11;97938.16;2134998;83;20972;-59
2021/12/29 11:49:04;;;;;;;101.20;43.48;;;;;;;0.19;88.12;97938.00;2154843;83;21431;-59
2021/12/29 11:52:04;;;;;;;89.30;40.88;;;;;;;0.26;88.30;97933.03;2110979;83;21016;-59
2021/12/29 11:55:04;;;;;;;78.70;37.28;;;;;;;0.34;88.12;97931.05;2155048;83;20971;-59
2021/12/29 11:58:05;;;;;;;77.25;37.60;;;;;;;0.43;87.63;97932.47;2135156;83;20953;-59
2021/12/29 12:01:05;;;;;;;74.32;37.05;;;;;;;0.45;87.89;97926.80;2155028;83;21011;-59
2021/12/29 12:04:07;;;;;;;82.33;40.08;;;;;;;0.53;87.79;97928.27;2134832;83;21075;-59
2021/12/29 12:07:08;;;;;;;75.80;38.67;;;;;;;0.56;87.66;97918.69;2154864;83;21007;-59
2021/12/29 12:10:11;;;;;;;80.10;39.85;;;;;;;0.62;87.56;97921.05;2135229;83;21075;-59
2021/12/29 12:13:11;;;;;;;81.78;39.85;;;;;;;0.64;87.61;97928.73;2128492;83;21054;-59
2021/12/29 12:16:11;;;;;;;80.83;39.92;;;;;;;0.67;87.59;97932.04;2135229;83;21016;-60
2021/12/29 12:19:12;;;;;;;74.05;38.58;;;;;;;0.69;87.45;97924.27;2155043;83;21018;-59
2021/12/29 12:22:13;;;;;;;81.75;39.23;;;;;;;0.73;87.49;97936.14;2134983;83;21389;-60
2021/12/29 12:25:13;;;;;;;81.82;40.28;;;;;;;0.75;87.29;97936.09;2154638;83;21057;-60
2021/12/29 12:28:14;;;;;;;82.82;40.17;;;;;;;0.80;87.43;97936.78;2134997;83;21515;-60
2021/12/29 12:31:14;;;;;;;77.50;38.05;;;;;;;0.89;87.29;97947.22;2154763;83;21465;-60
2021/12/29 12:34:15;;;;;;;77.58;39.05;;;;;;;0.91;86.99;97951.44;2135235;83;21012;-60
2021/12/29 12:37:15;;;;;;;80.70;39.80;;;;;;;0.94;86.85;97946.62;2155127;83;20967;-60
2021/12/29 12:40:15;;;;;;;79.85;39.55;;;;;;;0.98;87.28;97953.36;2134945;83;21116;-60
2021/12/29 12:43:16;;;;;;;84.03;38.73;;;;;;;1.08;87.09;97964.18;2154986;83;20998;-60
2021/12/29 12:46:17;;;;;;;76.35;38.60;;;;;;;1.08;87.20;97972.80;2134826;83;21104;-60
2021/12/29 12:49:17;;;;;;;79.77;37.78;;;;;;;1.11;87.11;97974.42;2154866;83;21481;-60
2021/12/29 12:52:18;;;;;;;78.02;39.10;;;;;;;1.08;86.95;97975.38;2134847;83;21500;-60
2021/12/29 12:55:18;;;;;;;82.20;39.80;;;;;;;1.08;87.06;97980.55;2154927;83;20951;-60
2021/12/29 12:58:19;;;;;;;82.88;40.25;;;;;;;1.13;87.04;97981.66;2135221;83;21042;-60
2021/12/29 13:01:19;;;;;;;79.60;39.38;;;;;;;1.17;87.06;97989.70;2154906;83;20944;-60
2021/12/29 13:04:20;;;;;;;79.35;39.85;;;;;;;1.19;86.78;97994.34;2134478;83;21067;-60
2021/12/29 13:07:21;;;;;;;91.17;42.23;;;;;;;1.15;87.06;97992.77;2154799;83;21525;-60
2021/12/29 13:10:21;;;;;;;84.50;42.60;;;;;;;1.16;87.16;97990.59;2134979;83;20985;-60
2021/12/29 13:13:22;;;;;;;82.42;41.10;;;;;;;1.16;86.91;97986.25;2155211;83;21015;-60
2021/12/29 13:16:22;;;;;;;84.22;43.08;;;;;;;1.21;87.19;97986.11;2134945;83;20996;-60
2021/12/29 13:19:23;;;;;;;87.37;41.13;;;;;;;1.26;87.06;97995.80;2154975;83;21056;-60
2021/12/29 13:22:23;;;;;;;84.00;40.00;;;;;;;1.29;87.06;97995.69;2133564;83;21044;-60
2021/12/29 13:25:28;;;;;;;88.67;42.45;;;;;;;1.28;87.00;97994.45;2147990;83;21087;-60
2021/12/29 13:28:26;;;;;;;81.35;41.23;;;;;;;1.23;86.81;97994.63;2105662;84;20985;-60
2021/12/29 13:31:27;;;;;;;90.50;43.02;;;;;;;1.20;86.70;97992.99;2148108;82;21023;-60
2021/12/29 13:34:27;;;;;;;89.65;42.75;;;;;;;1.19;87.02;98002.95;2131219;84;21523;-60
2021/12/29 13:37:28;;;;;;;81.47;39.48;;;;;;;1.16;87.05;98004.80;2148144;83;21051;-60
2021/12/29 13:40:28;;;;;;;87.65;42.95;;;;;;;1.15;87.19;98005.68;2131687;84;20986;-60
2021/12/29 13:43:28;;;;;;;85.47;39.45;;;;;;;1.15;87.36;98005.68;2148108;83;21011;-60
2021/12/29 13:46:29;;;;;;;84.95;39.70;;;;;;;1.15;87.36;98009.55;2131407;84;21048;-60
2021/12/29 13:49:29;;;;;;;86.72;41.33;;;;;;;1.12;87.30;98010.96;2147939;83;20959;-60
2021/12/29 13:52:30;;;;;;;89.37;43.78;;;;;;;1.09;87.35;98017.07;2131114;84;21551;-60
2021/12/29 13:55:30;;;;;;;89.62;41.85;;;;;;;1.01;87.38;98017.81;2148037;83;21592;-60
2021/12/29 13:58:31;;;;;;;81.72;41.05;;;;;;;0.94;87.68;98022.80;2131711;84;21035;-60
2021/12/29 14:01:31;;;;;;;80.95;39.38;;;;;;;0.89;87.69;98020.38;2147950;83;21127;-60
2021/12/29 14:04:31;;;;;;;83.62;40.48;;;;;;;0.84;87.85;98024.84;2131647;84;21028;-60
2021/12/29 14:07:32;;;;;;;86.05;40.25;;;;;;;0.79;87.93;98027.59;2147811;83;21046;-60